Volga-4011 — UBNJ — position and weather

sailwx.info

Track history (hours):
 
Tides and Currents Weather Stations Pressure Air Temp Water Temp Dewpoint Dewpoint Depression Visibility Wind Speed Wind Dir Waves Ship Positions

Volga-4011

Last reported at 2014-Dec-25 03:08 UTC. Time now 2015-Jan-30 09:29 UTC.
Position N 32°19' E 119°44'.
Warning: this ship's position is 36 days out of date.

Length 140 m; draft 3.4 m.

Type: Cargo ship. MMSI: 273358200.

Date/timePositionNaut miles runAvg speedWind from/ knotsBaromVisibWave heightAir tempDewpointWater temp
2014-Dec-25 03:08N 32°19' E 119°44'11 6.7
2014-Dec-25 01:32N 32°12' E 119°54'2 1.8
2014-Dec-25 00:29N 32°10' E 119°54'0 0.0
2014-Dec-24 23:24N 32°10' E 119°54'0 0.0
2014-Dec-24 22:31N 32°10' E 119°54'0 0.1
2014-Dec-24 21:31N 32°10' E 119°54'0 0.0
2014-Dec-24 20:32N 32°10' E 119°54'0 0.0
2014-Dec-24 19:12N 32°10' E 119°54'0 0.0
2014-Dec-24 18:30N 32°10' E 119°54'0 0.0
2014-Dec-24 17:28N 32°10' E 119°54'0 0.0
2014-Dec-24 12:19N 32°10' E 119°54'0 0.1
2014-Dec-24 11:23N 32°11' E 119°54'0 0.0
2014-Dec-24 09:06N 32°10' E 119°54'3 0.3
2014-Dec-23 20:32N 32°07' E 119°55'7 7.6
2014-Dec-23 19:33N 32°01' E 119°58'7 6.7
2014-Dec-23 18:33N 31°57' E 120°05'7 6.7
2014-Dec-23 17:34N 31°56' E 120°13'7 6.6
2014-Dec-23 16:33N 31°59' E 120°20'7 7.0
2014-Dec-23 15:33N 32°03' E 120°26'6 6.4
2014-Dec-23 14:33N 32°03' E 120°34'6 6.3
2014-Dec-23 13:33N 32°00' E 120°40'7 7.1
2014-Dec-23 12:34N 32°00' E 120°49'7 7.3
2014-Dec-23 11:33N 31°54' E 120°53'8 7.6
2014-Dec-23 10:33N 31°47' E 120°57'8 7.7
2014-Dec-23 09:33N 31°45' E 121°05'9 8.8
2014-Dec-23 08:33N 31°39' E 121°13'1 0.9
2014-Dec-23 07:33N 31°38' E 121°14'0 0.0
2014-Dec-23 06:22N 31°38' E 121°14'0 0.0
2014-Dec-23 05:32N 31°38' E 121°14'0 0.0
2014-Dec-23 04:32N 31°38' E 121°14'0 0.0
2014-Dec-23 03:33N 31°38' E 121°14'0 0.0
2014-Dec-23 02:32N 31°38' E 121°14'0 0.0
2014-Dec-23 01:33N 31°38' E 121°14'0 0.0
2014-Dec-23 00:34N 31°38' E 121°14'0 0.0
2014-Dec-22 23:32N 31°38' E 121°14'0 0.0
2014-Dec-22 22:33N 31°38' E 121°14'0 0.0
2014-Dec-22 21:33N 31°38' E 121°14'0 0.0
2014-Dec-22 20:31N 31°38' E 121°14'0 0.0
2014-Dec-22 19:31N 31°38' E 121°14'0 0.0
2014-Dec-22 18:32N 31°38' E 121°14'0 0.0
2014-Dec-22 17:33N 31°38' E 121°14'0 0.0
2014-Dec-22 16:33N 31°38' E 121°14'0 0.0
2014-Dec-22 15:31N 31°38' E 121°14'0 0.0
2014-Dec-22 14:29N 31°38' E 121°14'0 0.0
2014-Dec-22 13:32N 31°38' E 121°14'0 0.0
2014-Dec-22 12:33N 31°38' E 121°14'0 0.0
2014-Dec-22 11:33N 31°38' E 121°14'0 0.0
2014-Dec-22 10:28N 31°38' E 121°14'0 0.0
2014-Dec-22 09:29N 31°38' E 121°14'0 0.0
2014-Dec-22 08:32N 31°38' E 121°14'0 0.0
2014-Dec-22 07:33N 31°38' E 121°14'0 0.0
2014-Dec-22 06:31N 31°38' E 121°14'0 0.0
2014-Dec-22 05:28N 31°38' E 121°14'4 4.5
2014-Dec-22 04:34N 31°36' E 121°18'1111.0
2014-Dec-22 03:33N 31°28' E 121°27'8 8.5
2014-Dec-22 02:33N 31°23' E 121°35'1010.3
2014-Dec-22 01:33N 31°17' E 121°45'10 9.8
2014-Dec-22 00:34N 31°10' E 121°52'9 8.8
2014-Dec-21 23:33N 31°05' E 122°01'9 8.7
2014-Dec-21 22:33N 31°03' E 122°11'8 7.9
2014-Dec-21 21:31N 31°02' E 122°21'  
Track history (hours):
 
Tides and Currents Weather Stations Pressure Air Temp Water Temp Dewpoint Dewpoint Depression Visibility Wind Speed Wind Dir Waves Ship Positions

Volga-4011

Last reported at 2014-Dec-25 03:08 UTC. Time now 2015-Jan-30 09:29 UTC.
Position N 32°19' E 119°44'.
Warning: this ship's position is 36 days out of date.

Length 140 m; draft 3.4 m.

Type: Cargo ship. MMSI: 273358200.

Date/timePositionNaut miles runAvg speedWind from/ knotsBaromVisibWave heightAir tempDewpointWater temp
2014-Dec-25 03:08N 32°19' E 119°44'11 6.7
2014-Dec-25 01:32N 32°12' E 119°54'2 1.8
2014-Dec-25 00:29N 32°10' E 119°54'0 0.0
2014-Dec-24 23:24N 32°10' E 119°54'0 0.0
2014-Dec-24 22:31N 32°10' E 119°54'0 0.1
2014-Dec-24 21:31N 32°10' E 119°54'0 0.0
2014-Dec-24 20:32N 32°10' E 119°54'0 0.0
2014-Dec-24 19:12N 32°10' E 119°54'0 0.0
2014-Dec-24 18:30N 32°10' E 119°54'0 0.0
2014-Dec-24 17:28N 32°10' E 119°54'0 0.0
2014-Dec-24 12:19N 32°10' E 119°54'0 0.1
2014-Dec-24 11:23N 32°11' E 119°54'0 0.0
2014-Dec-24 09:06N 32°10' E 119°54'3 0.3
2014-Dec-23 20:32N 32°07' E 119°55'7 7.6
2014-Dec-23 19:33N 32°01' E 119°58'7 6.7
2014-Dec-23 18:33N 31°57' E 120°05'7 6.7
2014-Dec-23 17:34N 31°56' E 120°13'7 6.6
2014-Dec-23 16:33N 31°59' E 120°20'7 7.0
2014-Dec-23 15:33N 32°03' E 120°26'6 6.4
2014-Dec-23 14:33N 32°03' E 120°34'6 6.3
2014-Dec-23 13:33N 32°00' E 120°40'7 7.1
2014-Dec-23 12:34N 32°00' E 120°49'7 7.3
2014-Dec-23 11:33N 31°54' E 120°53'8 7.6
2014-Dec-23 10:33N 31°47' E 120°57'8 7.7
2014-Dec-23 09:33N 31°45' E 121°05'9 8.8
2014-Dec-23 08:33N 31°39' E 121°13'1 0.9
2014-Dec-23 07:33N 31°38' E 121°14'0 0.0
2014-Dec-23 06:22N 31°38' E 121°14'0 0.0
2014-Dec-23 05:32N 31°38' E 121°14'0 0.0
2014-Dec-23 04:32N 31°38' E 121°14'0 0.0
2014-Dec-23 03:33N 31°38' E 121°14'0 0.0
2014-Dec-23 02:32N 31°38' E 121°14'0 0.0
2014-Dec-23 01:33N 31°38' E 121°14'0 0.0
2014-Dec-23 00:34N 31°38' E 121°14'0 0.0
2014-Dec-22 23:32N 31°38' E 121°14'0 0.0
2014-Dec-22 22:33N 31°38' E 121°14'0 0.0
2014-Dec-22 21:33N 31°38' E 121°14'0 0.0
2014-Dec-22 20:31N 31°38' E 121°14'0 0.0
2014-Dec-22 19:31N 31°38' E 121°14'0 0.0
2014-Dec-22 18:32N 31°38' E 121°14'0 0.0
2014-Dec-22 17:33N 31°38' E 121°14'0 0.0
2014-Dec-22 16:33N 31°38' E 121°14'0 0.0
2014-Dec-22 15:31N 31°38' E 121°14'0 0.0
2014-Dec-22 14:29N 31°38' E 121°14'0 0.0
2014-Dec-22 13:32N 31°38' E 121°14'0 0.0
2014-Dec-22 12:33N 31°38' E 121°14'0 0.0
2014-Dec-22 11:33N 31°38' E 121°14'0 0.0
2014-Dec-22 10:28N 31°38' E 121°14'0 0.0
2014-Dec-22 09:29N 31°38' E 121°14'0 0.0
2014-Dec-22 08:32N 31°38' E 121°14'0 0.0
2014-Dec-22 07:33N 31°38' E 121°14'0 0.0
2014-Dec-22 06:31N 31°38' E 121°14'0 0.0
2014-Dec-22 05:28N 31°38' E 121°14'4 4.5
2014-Dec-22 04:34N 31°36' E 121°18'1111.0
2014-Dec-22 03:33N 31°28' E 121°27'8 8.5
2014-Dec-22 02:33N 31°23' E 121°35'1010.3
2014-Dec-22 01:33N 31°17' E 121°45'10 9.8
2014-Dec-22 00:34N 31°10' E 121°52'9 8.8
2014-Dec-21 23:33N 31°05' E 122°01'9 8.7
2014-Dec-21 22:33N 31°03' E 122°11'8 7.9
2014-Dec-21 21:31N 31°02' E 122°21'  

Dump ship's entire track history